Time,TemperatureF,DewpointF,PressureIn,WindDirection,WindDirectionDegrees,WindSpeedMPH,WindSpeedGustMPH,Humidity,HourlyPrecipIn,Conditions,Clouds,dailyrainin,SoftwareType,DateUTC
2013-05-18 00:05:00,56.1,54.0,29.91,ENE,59,2.0,-999.0,92,-99.99,,,0.00,weatherlink.com 1.10,2013-05-18 05:05:00,
2013-05-18 00:20:00,56.2,54.0,29.90,ESE,103,0.0,-999.0,92,-99.99,,,0.00,weatherlink.com 1.10,2013-05-18 05:20:00,
2013-05-18 00:35:00,56.2,54.0,29.90,SE,137,1.0,-999.0,92,-99.99,,,0.00,weatherlink.com 1.10,2013-05-18 05:35:00,
2013-05-18 00:50:00,56.2,54.0,29.90,SE,134,2.0,-999.0,92,-99.99,,,0.00,weatherlink.com 1.10,2013-05-18 05:50:00,
2013-05-18 01:05:00,56.3,54.0,29.90,ENE,77,1.0,-999.0,92,-99.99,,,0.00,weatherlink.com 1.10,2013-05-18 06:05:00,
2013-05-18 01:20:00,56.3,54.0,29.89,SSE,155,4.0,-999.0,92,-99.99,,,0.00,weatherlink.com 1.10,2013-05-18 06:20:00,
2013-05-18 01:35:00,56.3,54.0,29.89,NE,49,4.0,-999.0,92,-99.99,,,0.00,weatherlink.com 1.10,2013-05-18 06:35:00,
2013-05-18 01:50:00,56.2,54.0,29.89,ENE,67,2.0,-999.0,92,-99.99,,,0.00,weatherlink.com 1.10,2013-05-18 06:50:00,
2013-05-18 02:06:00,56.0,54.0,29.89,SE,138,2.0,-999.0,92,-99.99,,,0.00,weatherlink.com 1.10,2013-05-18 07:06:00,
2013-05-18 02:20:00,55.9,54.0,29.89,East,86,1.0,-999.0,92,-99.99,,,0.00,weatherlink.com 1.10,2013-05-18 07:20:00,
2013-05-18 02:35:00,55.9,54.0,29.89,ENE,67,0.0,-999.0,93,-99.99,,,0.00,weatherlink.com 1.10,2013-05-18 07:35:00,
2013-05-18 02:50:00,55.7,54.0,29.88,East,79,0.0,-999.0,93,-99.99,,,0.00,weatherlink.com 1.10,2013-05-18 07:50:00,
2013-05-18 03:05:00,55.5,53.0,29.87,East,88,1.0,-999.0,92,-99.99,,,0.00,weatherlink.com 1.10,2013-05-18 08:05:00,
2013-05-18 03:20:00,55.4,54.0,29.87,East,92,0.0,-999.0,93,-99.99,,,0.00,weatherlink.com 1.10,2013-05-18 08:20:00,
2013-05-18 03:35:00,55.3,53.0,29.86,ENE,69,3.0,-999.0,93,-99.99,,,0.00,weatherlink.com 1.10,2013-05-18 08:35:00,
2013-05-18 03:50:00,55.4,54.0,29.86,ESE,103,0.0,-999.0,93,-99.99,,,0.00,weatherlink.com 1.10,2013-05-18 08:50:00,
2013-05-18 04:05:00,55.5,54.0,29.86,SE,126,0.0,-999.0,93,-99.99,,,0.00,weatherlink.com 1.10,2013-05-18 09:05:00,
2013-05-18 04:20:00,55.7,54.0,29.86,ESE,109,0.0,-999.0,93,-99.99,,,0.00,weatherlink.com 1.10,2013-05-18 09:20:00,
2013-05-18 04:35:00,55.7,54.0,29.88,ESE,109,0.0,-999.0,93,-99.99,,,0.00,weatherlink.com 1.10,2013-05-18 09:35:00,
2013-05-18 04:50:00,55.8,54.0,29.90,ESE,109,0.0,-999.0,93,-99.99,,,0.00,weatherlink.com 1.10,2013-05-18 09:50:00,
2013-05-18 05:05:00,56.0,54.0,29.90,ESE,109,0.0,-999.0,93,-99.99,,,0.00,weatherlink.com 1.10,2013-05-18 10:05:00,
2013-05-18 05:20:00,56.0,54.0,29.93,ESE,109,0.0,-999.0,93,-99.99,,,0.01,weatherlink.com 1.10,2013-05-18 10:20:00,
2013-05-18 05:35:00,55.8,54.0,29.92,ESE,107,0.0,-999.0,93,-99.99,,,0.03,weatherlink.com 1.10,2013-05-18 10:35:00,
2013-05-18 05:50:00,55.5,54.0,29.91,ESE,107,0.0,-999.0,94,-99.99,,,0.05,weatherlink.com 1.10,2013-05-18 10:50:00,
2013-05-18 06:05:00,55.3,54.0,29.91,East,98,0.0,-999.0,94,-99.99,,,0.07,weatherlink.com 1.10,2013-05-18 11:05:00,
2013-05-18 06:20:00,55.1,54.0,29.92,East,98,0.0,-999.0,94,-99.99,,,0.10,weatherlink.com 1.10,2013-05-18 11:20:00,
2013-05-18 06:35:00,55.0,53.0,29.91,East,98,2.0,-999.0,94,-99.99,,,0.12,weatherlink.com 1.10,2013-05-18 11:35:00,
2013-05-18 06:50:00,55.0,53.0,29.91,ENE,75,0.0,-999.0,94,-99.99,,,0.16,weatherlink.com 1.10,2013-05-18 11:50:00,
2013-05-18 07:05:00,55.0,54.0,29.92,East,93,1.0,-999.0,95,-99.99,,,0.19,weatherlink.com 1.10,2013-05-18 12:05:00,
2013-05-18 07:20:00,54.9,54.0,29.90,ESE,111,3.0,-999.0,95,-99.99,,,0.21,weatherlink.com 1.10,2013-05-18 12:20:00,
2013-05-18 07:35:00,54.9,54.0,29.91,East,92,2.0,-999.0,95,-99.99,,,0.23,weatherlink.com 1.10,2013-05-18 12:35:00,
2013-05-18 07:50:00,55.0,54.0,29.89,ESE,115,0.0,-999.0,95,-99.99,,,0.25,weatherlink.com 1.10,2013-05-18 12:50:00,
2013-05-18 08:05:00,54.9,54.0,29.90,East,90,0.0,-999.0,95,-99.99,,,0.26,weatherlink.com 1.10,2013-05-18 13:05:00,
2013-05-18 08:20:00,55.1,54.0,29.89,East,90,3.0,-999.0,95,-99.99,,,0.27,weatherlink.com 1.10,2013-05-18 13:20:00,
2013-05-18 08:35:00,55.3,54.0,29.91,SSE,148,0.0,-999.0,96,-99.99,,,0.27,weatherlink.com 1.10,2013-05-18 13:35:00,
2013-05-18 08:50:00,55.6,55.0,29.91,SSE,157,0.0,-999.0,96,-99.99,,,0.28,weatherlink.com 1.10,2013-05-18 13:50:00,
2013-05-18 09:05:00,56.0,55.0,29.91,SSE,157,1.0,-999.0,96,-99.99,,,0.31,weatherlink.com 1.10,2013-05-18 14:05:00,
2013-05-18 09:20:00,56.3,55.0,29.89,ESE,111,0.0,-999.0,96,-99.99,,,0.35,weatherlink.com 1.10,2013-05-18 14:20:00,
2013-05-18 09:35:00,56.6,56.0,29.89,SE,140,1.0,-999.0,96,-99.99,,,0.37,weatherlink.com 1.10,2013-05-18 14:35:00,
2013-05-18 09:51:00,57.0,56.0,29.88,East,84,2.0,-999.0,96,-99.99,,,0.37,weatherlink.com 1.10,2013-05-18 14:51:00,
2013-05-18 10:06:00,57.7,57.0,29.86,SSW,192,2.0,-999.0,96,-99.99,,,0.38,weatherlink.com 1.10,2013-05-18 15:06:00,
2013-05-18 10:21:00,58.4,57.0,29.86,South,186,1.0,-999.0,96,-99.99,,,0.38,weatherlink.com 1.10,2013-05-18 15:21:00,
2013-05-18 10:36:00,58.9,58.0,29.86,SE,126,0.0,-999.0,97,-99.99,,,0.38,weatherlink.com 1.10,2013-05-18 15:36:00,
2013-05-18 10:51:00,59.6,59.0,29.85,SE,132,0.0,-999.0,97,-99.99,,,0.38,weatherlink.com 1.10,2013-05-18 15:51:00,
2013-05-18 11:06:00,60.4,60.0,29.85,SSE,168,1.0,-999.0,97,-99.99,,,0.38,weatherlink.com 1.10,2013-05-18 16:06:00,
2013-05-18 11:21:00,62.1,61.0,29.85,SE,144,3.0,-999.0,97,-99.99,,,0.38,weatherlink.com 1.10,2013-05-18 16:21:00,
2013-05-18 11:36:00,62.9,62.0,29.85,South,171,2.0,-999.0,97,-99.99,,,0.38,weatherlink.com 1.10,2013-05-18 16:36:00,
2013-05-18 11:51:00,63.8,63.0,29.85,SSE,164,3.0,-999.0,97,-99.99,,,0.38,weatherlink.com 1.10,2013-05-18 16:51:00,
2013-05-18 12:06:00,65.1,64.0,29.84,SE,126,2.0,-999.0,97,-99.99,,,0.38,weatherlink.com 1.10,2013-05-18 17:06:00,
2013-05-18 12:21:00,66.4,65.0,29.82,East,93,5.0,-999.0,95,-99.99,,,0.38,weatherlink.com 1.10,2013-05-18 17:21:00,
2013-05-18 12:36:00,68.6,66.0,29.82,SE,144,3.0,-999.0,90,-99.99,,,0.38,weatherlink.com 1.10,2013-05-18 17:36:00,
2013-05-18 12:51:00,70.0,65.0,29.81,ESE,114,1.0,-999.0,85,-99.99,,,0.38,weatherlink.com 1.10,2013-05-18 17:51:00,
2013-05-18 13:06:00,70.4,64.0,29.81,South,177,1.0,-999.0,81,-99.99,,,0.38,weatherlink.com 1.10,2013-05-18 18:06:00,
2013-05-18 13:21:00,71.4,65.0,29.80,East,94,4.0,-999.0,81,-99.99,,,0.38,weatherlink.com 1.10,2013-05-18 18:21:00,
2013-05-18 13:36:00,72.8,66.0,29.80,SSW,207,6.0,-999.0,78,-99.99,,,0.38,weatherlink.com 1.10,2013-05-18 18:36:00,
2013-05-18 13:51:00,73.6,66.0,29.80,SE,144,1.0,-999.0,76,-99.99,,,0.38,weatherlink.com 1.10,2013-05-18 18:51:00,
2013-05-18 14:06:00,75.3,67.0,29.79,ENE,59,0.0,-999.0,74,-99.99,,,0.38,weatherlink.com 1.10,2013-05-18 19:06:00,
2013-05-18 14:21:00,75.8,65.0,29.79,South,175,1.0,-999.0,70,-99.99,,,0.38,weatherlink.com 1.10,2013-05-18 19:21:00,
2013-05-18 14:36:00,76.7,66.0,29.78,ESE,119,3.0,-999.0,69,-99.99,,,0.38,weatherlink.com 1.10,2013-05-18 19:36:00,
2013-05-18 14:51:00,78.4,65.0,29.78,SE,146,3.0,-999.0,63,-99.99,,,0.38,weatherlink.com 1.10,2013-05-18 19:51:00,
2013-05-18 15:07:00,78.0,66.0,29.78,South,180,1.0,-999.0,66,-99.99,,,0.38,weatherlink.com 1.10,2013-05-18 20:07:00,
2013-05-18 15:22:00,77.1,65.0,29.78,SSE,149,2.0,-999.0,67,-99.99,,,0.38,weatherlink.com 1.10,2013-05-18 20:22:00,
2013-05-18 15:37:00,77.4,66.0,29.77,SSW,198,0.0,-999.0,69,-99.99,,,0.38,weatherlink.com 1.10,2013-05-18 20:37:00,
2013-05-18 15:52:00,78.7,66.0,29.77,ESE,121,1.0,-999.0,66,-99.99,,,0.38,weatherlink.com 1.10,2013-05-18 20:52:00,
2013-05-18 16:07:00,80.6,66.0,29.77,South,173,2.0,-999.0,62,-99.99,,,0.38,weatherlink.com 1.10,2013-05-18 21:07:00,
2013-05-18 16:22:00,79.7,67.0,29.77,SE,133,2.0,-999.0,65,-99.99,,,0.38,weatherlink.com 1.10,2013-05-18 21:22:00,
2013-05-18 16:37:00,79.7,67.0,29.77,ESE,119,2.0,-999.0,65,-99.99,,,0.38,weatherlink.com 1.10,2013-05-18 21:37:00,
2013-05-18 16:52:00,79.9,67.0,29.77,SSE,152,0.0,-999.0,65,-99.99,,,0.38,weatherlink.com 1.10,2013-05-18 21:52:00,
2013-05-18 17:07:00,80.2,66.0,29.76,SSE,160,3.0,-999.0,62,-99.99,,,0.38,weatherlink.com 1.10,2013-05-18 22:07:00,
2013-05-18 17:22:00,80.2,65.0,29.77,SSE,159,0.0,-999.0,61,-99.99,,,0.38,weatherlink.com 1.10,2013-05-18 22:22:00,
2013-05-18 17:37:00,79.4,66.0,29.77,SE,142,5.0,-999.0,63,-99.99,,,0.38,weatherlink.com 1.10,2013-05-18 22:37:00,
2013-05-18 17:52:00,79.7,66.0,29.77,SW,215,3.0,-999.0,63,-99.99,,,0.38,weatherlink.com 1.10,2013-05-18 22:52:00,
2013-05-18 18:07:00,79.4,65.0,29.77,SW,222,1.0,-999.0,62,-99.99,,,0.38,weatherlink.com 1.10,2013-05-18 23:07:00,
2013-05-18 18:22:00,78.9,66.0,29.77,ESE,117,1.0,-999.0,64,-99.99,,,0.38,weatherlink.com 1.10,2013-05-18 23:22:00,
2013-05-18 18:37:00,78.6,65.0,29.77,SSE,160,2.0,-999.0,63,-99.99,,,0.38,weatherlink.com 1.10,2013-05-18 23:37:00,
2013-05-18 18:52:00,78.7,65.0,29.77,SSE,153,2.0,-999.0,64,-99.99,,,0.38,weatherlink.com 1.10,2013-05-18 23:52:00,
2013-05-18 19:07:00,78.3,66.0,29.76,SSE,152,0.0,-999.0,65,-99.99,,,0.38,weatherlink.com 1.10,2013-05-19 00:07:00,
2013-05-18 19:22:00,77.8,66.0,29.76,SE,139,4.0,-999.0,66,-99.99,,,0.38,weatherlink.com 1.10,2013-05-19 00:22:00,
2013-05-18 19:37:00,77.8,66.0,29.76,ESE,117,0.0,-999.0,66,-99.99,,,0.38,weatherlink.com 1.10,2013-05-19 00:37:00,
2013-05-18 19:52:00,77.2,65.0,29.75,ESE,121,0.0,-999.0,67,-99.99,,,0.38,weatherlink.com 1.10,2013-05-19 00:52:00,
2013-05-18 20:07:00,76.4,65.0,29.75,ESE,107,0.0,-999.0,68,-99.99,,,0.38,weatherlink.com 1.10,2013-05-19 01:07:00,
2013-05-18 20:22:00,75.5,65.0,29.75,ESE,107,0.0,-999.0,70,-99.99,,,0.38,weatherlink.com 1.10,2013-05-19 01:22:00,
2013-05-18 20:37:00,74.8,64.0,29.75,ESE,107,0.0,-999.0,70,-99.99,,,0.38,weatherlink.com 1.10,2013-05-19 01:37:00,
2013-05-18 20:52:00,73.8,64.0,29.75,ESE,106,0.0,-999.0,72,-99.99,,,0.38,weatherlink.com 1.10,2013-05-19 01:52:00,
2013-05-18 21:07:00,72.4,64.0,29.74,ESE,107,0.0,-999.0,74,-99.99,,,0.38,weatherlink.com 1.10,2013-05-19 02:07:00,
2013-05-18 21:22:00,71.1,64.0,29.75,ESE,107,0.0,-999.0,78,-99.99,,,0.38,weatherlink.com 1.10,2013-05-19 02:22:00,
2013-05-18 21:37:00,70.0,64.0,29.75,ESE,106,0.0,-999.0,80,-99.99,,,0.38,weatherlink.com 1.10,2013-05-19 02:37:00,
2013-05-18 21:52:00,69.2,64.0,29.75,ESE,107,0.0,-999.0,82,-99.99,,,0.38,weatherlink.com 1.10,2013-05-19 02:52:00,
2013-05-18 22:07:00,68.5,63.0,29.75,ESE,107,0.0,-999.0,83,-99.99,,,0.38,weatherlink.com 1.10,2013-05-19 03:07:00,
2013-05-18 22:22:00,68.3,63.0,29.74,ESE,106,0.0,-999.0,84,-99.99,,,0.38,weatherlink.com 1.10,2013-05-19 03:22:00,
2013-05-18 22:37:00,68.6,64.0,29.73,SE,142,0.0,-999.0,86,-99.99,,,0.38,weatherlink.com 1.10,2013-05-19 03:37:00,
2013-05-18 22:52:00,69.3,65.0,29.72,SE,132,0.0,-999.0,85,-99.99,,,0.38,weatherlink.com 1.10,2013-05-19 03:52:00,
2013-05-18 23:07:00,69.7,65.0,29.72,SE,130,1.0,-999.0,84,-99.99,,,0.38,weatherlink.com 1.10,2013-05-19 04:07:00,
2013-05-18 23:22:00,70.0,65.0,29.72,ESE,118,0.0,-999.0,83,-99.99,,,0.38,weatherlink.com 1.10,2013-05-19 04:22:00,
2013-05-18 23:37:00,69.9,65.0,29.72,SE,125,3.0,-999.0,83,-99.99,,,0.38,weatherlink.com 1.10,2013-05-19 04:37:00,
2013-05-18 23:52:00,69.9,65.0,29.71,ESE,103,3.0,-999.0,83,-99.99,,,0.38,weatherlink.com 1.10,2013-05-19 04:52:00,